sensor_id;sensor_type;location;lat;lon;timestamp;temperature;humidity
3614;DHT22;1821;50.936;6.854;2023-10-19T00:00:29;10.80;1.00
3614;DHT22;1821;50.936;6.854;2023-10-19T00:01:15;11.00;1.00
3614;DHT22;1821;50.936;6.854;2023-10-19T00:01:58;11.10;1.00
3614;DHT22;1821;50.936;6.854;2023-10-19T00:02:41;11.10;1.00
3614;DHT22;1821;50.936;6.854;2023-10-19T00:03:24;10.90;1.00
3614;DHT22;1821;50.936;6.854;2023-10-19T00:04:06;10.90;1.00
3614;DHT22;1821;50.936;6.854;2023-10-19T00:04:48;10.90;1.00
3614;DHT22;1821;50.936;6.854;2023-10-19T00:05:34;11.30;1.00
3614;DHT22;1821;50.936;6.854;2023-10-19T00:06:16;11.00;1.00
3614;DHT22;1821;50.936;6.854;2023-10-19T00:07:02;11.10;1.00
3614;DHT22;1821;50.936;6.854;2023-10-19T00:07:46;11.10;1.00
3614;DHT22;1821;50.936;6.854;2023-10-19T00:08:28;11.30;1.00
3614;DHT22;1821;50.936;6.854;2023-10-19T00:09:18;11.20;1.00
3614;DHT22;1821;50.936;6.854;2023-10-19T00:10:04;11.20;1.00
3614;DHT22;1821;50.936;6.854;2023-10-19T00:10:53;11.00;1.00
3614;DHT22;1821;50.936;6.854;2023-10-19T00:11:44;11.10;1.00
3614;DHT22;1821;50.936;6.854;2023-10-19T00:12:27;11.20;1.00
3614;DHT22;1821;50.936;6.854;2023-10-19T00:13:11;11.40;1.00
3614;DHT22;1821;50.936;6.854;2023-10-19T00:13:56;11.30;1.00
3614;DHT22;1821;50.936;6.854;2023-10-19T00:14:39;11.00;1.00
3614;DHT22;1821;50.936;6.854;2023-10-19T00:15:21;11.40;1.00
3614;DHT22;1821;50.936;6.854;2023-10-19T00:16:10;11.30;1.00
3614;DHT22;1821;50.936;6.854;2023-10-19T00:17:05;11.20;1.00
3614;DHT22;1821;50.936;6.854;2023-10-19T00:17:48;11.10;1.00
3614;DHT22;1821;50.936;6.854;2023-10-19T00:18:35;11.30;1.00
3614;DHT22;1821;50.936;6.854;2023-10-19T00:19:16;11.60;1.00
3614;DHT22;1821;50.936;6.854;2023-10-19T00:20:01;11.50;1.00
3614;DHT22;1821;50.936;6.854;2023-10-19T00:21:05;11.10;1.00
3614;DHT22;1821;50.936;6.854;2023-10-19T00:22:08;11.00;1.00
3614;DHT22;1821;50.936;6.854;2023-10-19T00:22:57;11.20;1.00
3614;DHT22;1821;50.936;6.854;2023-10-19T00:23:40;11.50;1.00
3614;DHT22;1821;50.936;6.854;2023-10-19T00:24:22;11.30;1.00
3614;DHT22;1821;50.936;6.854;2023-10-19T00:25:05;11.20;1.00
3614;DHT22;1821;50.936;6.854;2023-10-19T00:25:48;11.40;1.00
3614;DHT22;1821;50.936;6.854;2023-10-19T00:26:33;11.20;1.00
3614;DHT22;1821;50.936;6.854;2023-10-19T00:27:14;11.10;1.00
3614;DHT22;1821;50.936;6.854;2023-10-19T00:28:01;11.10;1.00
3614;DHT22;1821;50.936;6.854;2023-10-19T00:28:47;11.40;1.00
3614;DHT22;1821;50.936;6.854;2023-10-19T00:29:34;11.10;1.00
3614;DHT22;1821;50.936;6.854;2023-10-19T00:30:21;11.20;1.00
3614;DHT22;1821;50.936;6.854;2023-10-19T00:31:05;13.10;1.00
3614;DHT22;1821;50.936;6.854;2023-10-19T00:31:50;11.30;1.00
3614;DHT22;1821;50.936;6.854;2023-10-19T00:32:33;11.40;1.00
3614;DHT22;1821;50.936;6.854;2023-10-19T00:33:21;11.30;1.00
3614;DHT22;1821;50.936;6.854;2023-10-19T00:34:03;11.30;1.00
3614;DHT22;1821;50.936;6.854;2023-10-19T00:34:46;11.40;1.00
3614;DHT22;1821;50.936;6.854;2023-10-19T00:35:33;11.40;1.00
3614;DHT22;1821;50.936;6.854;2023-10-19T00:36:16;11.30;1.00
3614;DHT22;1821;50.936;6.854;2023-10-19T00:36:58;11.30;1.00
3614;DHT22;1821;50.936;6.854;2023-10-19T00:37:49;11.30;1.00
3614;DHT22;1821;50.936;6.854;2023-10-19T00:38:31;11.40;1.00
3614;DHT22;1821;50.936;6.854;2023-10-19T00:39:13;11.40;1.00
3614;DHT22;1821;50.936;6.854;2023-10-19T00:39:58;11.40;1.00
3614;DHT22;1821;50.936;6.854;2023-10-19T00:40:56;11.50;1.00
3614;DHT22;1821;50.936;6.854;2023-10-19T00:41:54;11.40;1.00
3614;DHT22;1821;50.936;6.854;2023-10-19T00:42:39;11.50;1.00
3614;DHT22;1821;50.936;6.854;2023-10-19T00:43:31;11.40;1.00
3614;DHT22;1821;50.936;6.854;2023-10-19T00:44:19;11.50;1.00
3614;DHT22;1821;50.936;6.854;2023-10-19T00:45:06;11.50;1.00
3614;DHT22;1821;50.936;6.854;2023-10-19T00:45:49;11.10;1.00
3614;DHT22;1821;50.936;6.854;2023-10-19T00:46:34;11.10;1.00
3614;DHT22;1821;50.936;6.854;2023-10-19T00:47:25;10.50;1.00
3614;DHT22;1821;50.936;6.854;2023-10-19T00:48:12;11.20;1.00
3614;DHT22;1821;50.936;6.854;2023-10-19T00:48:57;11.10;1.00
3614;DHT22;1821;50.936;6.854;2023-10-19T00:49:40;11.40;1.00
3614;DHT22;1821;50.936;6.854;2023-10-19T00:50:29;11.00;1.00
3614;DHT22;1821;50.936;6.854;2023-10-19T00:51:14;11.40;1.00
3614;DHT22;1821;50.936;6.854;2023-10-19T00:52:08;11.10;1.00
3614;DHT22;1821;50.936;6.854;2023-10-19T00:52:54;11.30;1.00
3614;DHT22;1821;50.936;6.854;2023-10-19T00:53:39;11.40;1.00
3614;DHT22;1821;50.936;6.854;2023-10-19T00:55:18;11.20;1.00
3614;DHT22;1821;50.936;6.854;2023-10-19T00:56:09;11.50;1.00
3614;DHT22;1821;50.936;6.854;2023-10-19T00:56:52;11.30;1.00
3614;DHT22;1821;50.936;6.854;2023-10-19T00:57:38;11.50;1.00
3614;DHT22;1821;50.936;6.854;2023-10-19T00:58:23;11.30;1.00
3614;DHT22;1821;50.936;6.854;2023-10-19T00:59:12;11.30;1.00
3614;DHT22;1821;50.936;6.854;2023-10-19T00:59:56;11.40;1.00
3614;DHT22;1821;50.936;6.854;2023-10-19T01:00:52;11.40;1.00
3614;DHT22;1821;50.936;6.854;2023-10-19T01:01:38;11.50;1.00
3614;DHT22;1821;50.936;6.854;2023-10-19T01:02:25;11.60;1.00
3614;DHT22;1821;50.936;6.854;2023-10-19T01:03:08;11.40;1.00
3614;DHT22;1821;50.936;6.854;2023-10-19T01:03:55;11.60;1.00
3614;DHT22;1821;50.936;6.854;2023-10-19T01:04:40;11.60;1.00
3614;DHT22;1821;50.936;6.854;2023-10-19T01:05:24;11.70;1.00
3614;DHT22;1821;50.936;6.854;2023-10-19T01:06:07;11.90;1.00
3614;DHT22;1821;50.936;6.854;2023-10-19T01:06:51;11.60;1.00
3614;DHT22;1821;50.936;6.854;2023-10-19T01:07:46;11.40;1.00
3614;DHT22;1821;50.936;6.854;2023-10-19T01:08:28;11.70;1.00
3614;DHT22;1821;50.936;6.854;2023-10-19T01:09:16;11.60;1.00
3614;DHT22;1821;50.936;6.854;2023-10-19T01:10:03;11.60;1.00
3614;DHT22;1821;50.936;6.854;2023-10-19T01:10:48;11.50;1.00
3614;DHT22;1821;50.936;6.854;2023-10-19T01:11:34;11.60;1.00
3614;DHT22;1821;50.936;6.854;2023-10-19T01:12:21;11.70;1.00
3614;DHT22;1821;50.936;6.854;2023-10-19T01:13:07;12.30;1.00
3614;DHT22;1821;50.936;6.854;2023-10-19T01:13:48;11.60;1.00
3614;DHT22;1821;50.936;6.854;2023-10-19T01:14:32;11.60;1.00
3614;DHT22;1821;50.936;6.854;2023-10-19T01:15:17;11.60;1.00
3614;DHT22;1821;50.936;6.854;2023-10-19T01:15:59;11.60;1.00
3614;DHT22;1821;50.936;6.854;2023-10-19T01:16:41;11.50;1.00
3614;DHT22;1821;50.936;6.854;2023-10-19T01:17:23;11.60;1.00
3614;DHT22;1821;50.936;6.854;2023-10-19T01:18:06;12.30;1.00
3614;DHT22;1821;50.936;6.854;2023-10-19T01:18:52;11.40;1.00
3614;DHT22;1821;50.936;6.854;2023-10-19T01:19:37;11.50;1.00
3614;DHT22;1821;50.936;6.854;2023-10-19T01:20:24;11.80;1.00
3614;DHT22;1821;50.936;6.854;2023-10-19T01:21:12;11.70;1.00
3614;DHT22;1821;50.936;6.854;2023-10-19T01:21:54;11.70;1.00
3614;DHT22;1821;50.936;6.854;2023-10-19T01:23:01;11.40;1.00
3614;DHT22;1821;50.936;6.854;2023-10-19T01:23:50;11.80;1.00
3614;DHT22;1821;50.936;6.854;2023-10-19T01:24:32;11.70;1.00
3614;DHT22;1821;50.936;6.854;2023-10-19T01:25:44;11.70;1.00
3614;DHT22;1821;50.936;6.854;2023-10-19T01:26:38;11.80;1.00
3614;DHT22;1821;50.936;6.854;2023-10-19T01:27:20;11.80;1.00
3614;DHT22;1821;50.936;6.854;2023-10-19T01:28:07;11.80;1.00
3614;DHT22;1821;50.936;6.854;2023-10-19T01:28:50;11.60;1.00
3614;DHT22;1821;50.936;6.854;2023-10-19T01:29:35;11.80;1.00
3614;DHT22;1821;50.936;6.854;2023-10-19T01:30:19;11.80;1.00
3614;DHT22;1821;50.936;6.854;2023-10-19T01:31:01;12.00;1.00
3614;DHT22;1821;50.936;6.854;2023-10-19T01:31:48;11.70;1.00
3614;DHT22;1821;50.936;6.854;2023-10-19T01:32:40;11.80;1.00
3614;DHT22;1821;50.936;6.854;2023-10-19T01:33:24;11.60;1.00
3614;DHT22;1821;50.936;6.854;2023-10-19T01:34:05;11.80;1.00
3614;DHT22;1821;50.936;6.854;2023-10-19T01:34:50;11.80;1.00
3614;DHT22;1821;50.936;6.854;2023-10-19T01:35:32;11.90;1.00
3614;DHT22;1821;50.936;6.854;2023-10-19T01:36:34;11.70;1.00
3614;DHT22;1821;50.936;6.854;2023-10-19T01:37:24;12.50;1.00
3614;DHT22;1821;50.936;6.854;2023-10-19T01:38:06;11.80;1.00
3614;DHT22;1821;50.936;6.854;2023-10-19T01:38:53;12.20;1.00
3614;DHT22;1821;50.936;6.854;2023-10-19T01:39:36;12.00;1.00
3614;DHT22;1821;50.936;6.854;2023-10-19T01:40:20;12.30;1.00
3614;DHT22;1821;50.936;6.854;2023-10-19T01:41:04;12.00;1.00
3614;DHT22;1821;50.936;6.854;2023-10-19T01:41:57;11.70;1.00
3614;DHT22;1821;50.936;6.854;2023-10-19T01:42:39;11.80;1.00
3614;DHT22;1821;50.936;6.854;2023-10-19T01:43:21;12.00;1.00
3614;DHT22;1821;50.936;6.854;2023-10-19T01:44:04;12.50;1.00
3614;DHT22;1821;50.936;6.854;2023-10-19T01:44:46;11.90;1.00
3614;DHT22;1821;50.936;6.854;2023-10-19T01:45:29;11.90;1.00
3614;DHT22;1821;50.936;6.854;2023-10-19T01:46:12;12.00;1.00
3614;DHT22;1821;50.936;6.854;2023-10-19T01:46:55;11.80;1.00
3614;DHT22;1821;50.936;6.854;2023-10-19T01:47:37;11.80;1.00
3614;DHT22;1821;50.936;6.854;2023-10-19T01:48:22;11.70;1.00
3614;DHT22;1821;50.936;6.854;2023-10-19T01:49:52;12.00;1.00
3614;DHT22;1821;50.936;6.854;2023-10-19T01:50:34;11.80;1.00
3614;DHT22;1821;50.936;6.854;2023-10-19T01:51:22;12.00;1.00
3614;DHT22;1821;50.936;6.854;2023-10-19T01:52:05;11.70;1.00
3614;DHT22;1821;50.936;6.854;2023-10-19T01:52:48;12.40;1.00
3614;DHT22;1821;50.936;6.854;2023-10-19T01:53:30;9.90;1.00
3614;DHT22;1821;50.936;6.854;2023-10-19T01:54:15;11.80;1.00
3614;DHT22;1821;50.936;6.854;2023-10-19T01:54:58;11.90;1.00
3614;DHT22;1821;50.936;6.854;2023-10-19T01:55:51;12.00;1.00
3614;DHT22;1821;50.936;6.854;2023-10-19T01:56:39;12.10;1.00
3614;DHT22;1821;50.936;6.854;2023-10-19T01:57:24;12.00;1.00
3614;DHT22;1821;50.936;6.854;2023-10-19T01:58:07;12.20;1.00
3614;DHT22;1821;50.936;6.854;2023-10-19T01:58:50;12.10;1.00
3614;DHT22;1821;50.936;6.854;2023-10-19T01:59:43;12.40;1.00
3614;DHT22;1821;50.936;6.854;2023-10-19T02:00:26;12.00;1.00
3614;DHT22;1821;50.936;6.854;2023-10-19T02:01:08;11.80;1.00
3614;DHT22;1821;50.936;6.854;2023-10-19T02:01:54;12.10;1.00
3614;DHT22;1821;50.936;6.854;2023-10-19T02:02:36;11.90;1.00
3614;DHT22;1821;50.936;6.854;2023-10-19T02:03:18;12.00;1.00
3614;DHT22;1821;50.936;6.854;2023-10-19T02:04:05;12.30;1.00
3614;DHT22;1821;50.936;6.854;2023-10-19T02:04:50;12.10;1.00
3614;DHT22;1821;50.936;6.854;2023-10-19T02:05:35;12.10;1.00
3614;DHT22;1821;50.936;6.854;2023-10-19T02:06:23;12.10;1.00
3614;DHT22;1821;50.936;6.854;2023-10-19T02:07:09;11.90;1.00
3614;DHT22;1821;50.936;6.854;2023-10-19T02:07:59;12.20;1.00
3614;DHT22;1821;50.936;6.854;2023-10-19T02:08:43;11.90;1.00
3614;DHT22;1821;50.936;6.854;2023-10-19T02:09:26;12.10;1.00
3614;DHT22;1821;50.936;6.854;2023-10-19T02:10:10;12.00;1.00
3614;DHT22;1821;50.936;6.854;2023-10-19T02:10:53;12.10;1.00
3614;DHT22;1821;50.936;6.854;2023-10-19T02:11:35;12.10;1.00
3614;DHT22;1821;50.936;6.854;2023-10-19T02:12:23;12.10;1.00
3614;DHT22;1821;50.936;6.854;2023-10-19T02:13:06;12.00;1.00
3614;DHT22;1821;50.936;6.854;2023-10-19T02:13:52;12.00;1.00
3614;DHT22;1821;50.936;6.854;2023-10-19T02:14:35;12.10;1.00
3614;DHT22;1821;50.936;6.854;2023-10-19T02:15:20;12.00;1.00
3614;DHT22;1821;50.936;6.854;2023-10-19T02:16:04;12.10;1.00
3614;DHT22;1821;50.936;6.854;2023-10-19T02:16:48;12.00;1.00
3614;DHT22;1821;50.936;6.854;2023-10-19T02:17:35;12.00;1.00
3614;DHT22;1821;50.936;6.854;2023-10-19T02:18:17;12.00;1.00
3614;DHT22;1821;50.936;6.854;2023-10-19T02:18:59;12.00;1.00
3614;DHT22;1821;50.936;6.854;2023-10-19T02:19:43;11.90;1.00
3614;DHT22;1821;50.936;6.854;2023-10-19T02:20:25;11.80;1.00
3614;DHT22;1821;50.936;6.854;2023-10-19T02:21:22;12.10;1.00
3614;DHT22;1821;50.936;6.854;2023-10-19T02:22:04;12.10;1.00
3614;DHT22;1821;50.936;6.854;2023-10-19T02:22:49;11.80;1.00
3614;DHT22;1821;50.936;6.854;2023-10-19T02:23:34;11.90;1.00
3614;DHT22;1821;50.936;6.854;2023-10-19T02:24:16;12.00;1.00
3614;DHT22;1821;50.936;6.854;2023-10-19T02:24:58;12.00;1.00
3614;DHT22;1821;50.936;6.854;2023-10-19T02:25:40;11.90;1.00
3614;DHT22;1821;50.936;6.854;2023-10-19T02:26:22;12.00;1.00
3614;DHT22;1821;50.936;6.854;2023-10-19T02:27:07;12.00;1.00
3614;DHT22;1821;50.936;6.854;2023-10-19T02:28:11;12.10;1.00
3614;DHT22;1821;50.936;6.854;2023-10-19T02:28:53;12.00;1.00
3614;DHT22;1821;50.936;6.854;2023-10-19T02:29:37;12.20;1.00
3614;DHT22;1821;50.936;6.854;2023-10-19T02:30:20;11.90;1.00
3614;DHT22;1821;50.936;6.854;2023-10-19T02:31:02;12.10;1.00
3614;DHT22;1821;50.936;6.854;2023-10-19T02:31:57;11.80;1.00
3614;DHT22;1821;50.936;6.854;2023-10-19T02:32:45;12.00;1.00
3614;DHT22;1821;50.936;6.854;2023-10-19T02:33:29;11.80;1.00
3614;DHT22;1821;50.936;6.854;2023-10-19T02:34:12;11.90;1.00
3614;DHT22;1821;50.936;6.854;2023-10-19T02:34:59;11.70;1.00
3614;DHT22;1821;50.936;6.854;2023-10-19T02:35:44;12.00;1.00
3614;DHT22;1821;50.936;6.854;2023-10-19T02:36:29;11.80;1.00
3614;DHT22;1821;50.936;6.854;2023-10-19T02:37:12;11.80;1.00
3614;DHT22;1821;50.936;6.854;2023-10-19T02:37:54;11.90;1.00
3614;DHT22;1821;50.936;6.854;2023-10-19T02:38:36;12.20;1.00
3614;DHT22;1821;50.936;6.854;2023-10-19T02:39:18;11.90;1.00
3614;DHT22;1821;50.936;6.854;2023-10-19T02:40:00;11.70;1.00
3614;DHT22;1821;50.936;6.854;2023-10-19T02:40:42;11.80;1.00
3614;DHT22;1821;50.936;6.854;2023-10-19T02:41:24;11.70;1.00
3614;DHT22;1821;50.936;6.854;2023-10-19T02:42:08;12.00;1.00
3614;DHT22;1821;50.936;6.854;2023-10-19T02:42:50;11.70;1.00
3614;DHT22;1821;50.936;6.854;2023-10-19T02:43:32;12.50;1.00
3614;DHT22;1821;50.936;6.854;2023-10-19T02:44:18;12.10;1.00
3614;DHT22;1821;50.936;6.854;2023-10-19T02:45:02;11.80;1.00
3614;DHT22;1821;50.936;6.854;2023-10-19T02:45:46;12.40;1.00
3614;DHT22;1821;50.936;6.854;2023-10-19T02:46:30;11.90;1.00
3614;DHT22;1821;50.936;6.854;2023-10-19T02:47:13;11.80;1.00
3614;DHT22;1821;50.936;6.854;2023-10-19T02:47:55;12.10;1.00
3614;DHT22;1821;50.936;6.854;2023-10-19T02:48:38;12.00;1.00
3614;DHT22;1821;50.936;6.854;2023-10-19T02:49:21;12.00;1.00
3614;DHT22;1821;50.936;6.854;2023-10-19T02:50:04;11.80;1.00
3614;DHT22;1821;50.936;6.854;2023-10-19T02:50:52;12.10;1.00
3614;DHT22;1821;50.936;6.854;2023-10-19T02:51:34;12.00;1.00
3614;DHT22;1821;50.936;6.854;2023-10-19T02:52:16;12.10;1.00
3614;DHT22;1821;50.936;6.854;2023-10-19T02:52:58;12.10;1.00
3614;DHT22;1821;50.936;6.854;2023-10-19T02:53:40;11.70;1.00
3614;DHT22;1821;50.936;6.854;2023-10-19T02:54:23;11.80;1.00
3614;DHT22;1821;50.936;6.854;2023-10-19T02:55:07;12.00;1.00
3614;DHT22;1821;50.936;6.854;2023-10-19T02:55:49;12.00;1.00
3614;DHT22;1821;50.936;6.854;2023-10-19T02:56:34;12.50;1.00
3614;DHT22;1821;50.936;6.854;2023-10-19T02:57:20;11.70;1.00
3614;DHT22;1821;50.936;6.854;2023-10-19T02:58:02;11.90;1.00
3614;DHT22;1821;50.936;6.854;2023-10-19T02:58:47;11.80;1.00
3614;DHT22;1821;50.936;6.854;2023-10-19T02:59:32;11.90;1.00
3614;DHT22;1821;50.936;6.854;2023-10-19T03:00:15;11.80;1.00
3614;DHT22;1821;50.936;6.854;2023-10-19T03:00:57;11.90;1.00
3614;DHT22;1821;50.936;6.854;2023-10-19T03:01:39;11.90;1.00
3614;DHT22;1821;50.936;6.854;2023-10-19T03:02:25;11.90;1.00
3614;DHT22;1821;50.936;6.854;2023-10-19T03:03:08;12.10;1.00
3614;DHT22;1821;50.936;6.854;2023-10-19T03:03:54;11.90;1.00
3614;DHT22;1821;50.936;6.854;2023-10-19T03:04:37;11.90;1.00
3614;DHT22;1821;50.936;6.854;2023-10-19T03:05:19;10.50;1.00
3614;DHT22;1821;50.936;6.854;2023-10-19T03:06:02;11.80;1.00
3614;DHT22;1821;50.936;6.854;2023-10-19T03:06:48;12.00;1.00
3614;DHT22;1821;50.936;6.854;2023-10-19T03:07:30;11.90;1.00
3614;DHT22;1821;50.936;6.854;2023-10-19T03:08:13;12.70;1.00
3614;DHT22;1821;50.936;6.854;2023-10-19T03:08:58;11.80;1.00
3614;DHT22;1821;50.936;6.854;2023-10-19T03:09:42;11.90;1.00
3614;DHT22;1821;50.936;6.854;2023-10-19T03:10:33;11.90;1.00
3614;DHT22;1821;50.936;6.854;2023-10-19T03:11:24;12.00;1.00
3614;DHT22;1821;50.936;6.854;2023-10-19T03:12:07;11.70;1.00
3614;DHT22;1821;50.936;6.854;2023-10-19T03:12:52;11.80;1.00
3614;DHT22;1821;50.936;6.854;2023-10-19T03:13:34;11.80;1.00
3614;DHT22;1821;50.936;6.854;2023-10-19T03:14:17;11.90;1.00
3614;DHT22;1821;50.936;6.854;2023-10-19T03:14:59;11.90;1.00
3614;DHT22;1821;50.936;6.854;2023-10-19T03:15:42;11.70;1.00
3614;DHT22;1821;50.936;6.854;2023-10-19T03:16:25;12.30;1.00
3614;DHT22;1821;50.936;6.854;2023-10-19T03:17:54;12.00;1.00
3614;DHT22;1821;50.936;6.854;2023-10-19T03:18:36;11.70;1.00
3614;DHT22;1821;50.936;6.854;2023-10-19T03:19:18;12.10;1.00
3614;DHT22;1821;50.936;6.854;2023-10-19T03:20:04;12.00;1.00
3614;DHT22;1821;50.936;6.854;2023-10-19T03:20:48;11.80;1.40
3614;DHT22;1821;50.936;6.854;2023-10-19T03:21:33;11.90;1.00
3614;DHT22;1821;50.936;6.854;2023-10-19T03:22:23;11.90;1.00
3614;DHT22;1821;50.936;6.854;2023-10-19T03:23:05;12.00;1.50
3614;DHT22;1821;50.936;6.854;2023-10-19T03:23:47;12.00;1.00
3614;DHT22;1821;50.936;6.854;2023-10-19T03:24:32;12.00;1.50
3614;DHT22;1821;50.936;6.854;2023-10-19T03:25:18;12.00;1.00
3614;DHT22;1821;50.936;6.854;2023-10-19T03:26:38;12.00;1.00
3614;DHT22;1821;50.936;6.854;2023-10-19T03:27:25;11.90;1.00
3614;DHT22;1821;50.936;6.854;2023-10-19T03:28:07;12.00;1.00
3614;DHT22;1821;50.936;6.854;2023-10-19T03:28:53;11.90;1.00
3614;DHT22;1821;50.936;6.854;2023-10-19T03:29:41;11.90;1.00
3614;DHT22;1821;50.936;6.854;2023-10-19T03:30:27;11.90;1.00
3614;DHT22;1821;50.936;6.854;2023-10-19T03:31:09;12.10;1.00
3614;DHT22;1821;50.936;6.854;2023-10-19T03:31:59;11.90;2.20
3614;DHT22;1821;50.936;6.854;2023-10-19T03:32:44;12.00;1.00
3614;DHT22;1821;50.936;6.854;2023-10-19T03:33:26;12.00;4.30
3614;DHT22;1821;50.936;6.854;2023-10-19T03:34:11;12.10;7.00
3614;DHT22;1821;50.936;6.854;2023-10-19T03:34:55;12.00;7.40
3614;DHT22;1821;50.936;6.854;2023-10-19T03:35:38;11.90;4.20
3614;DHT22;1821;50.936;6.854;2023-10-19T03:36:23;12.50;6.50
3614;DHT22;1821;50.936;6.854;2023-10-19T03:37:06;11.90;6.40
3614;DHT22;1821;50.936;6.854;2023-10-19T03:37:50;12.00;8.50
3614;DHT22;1821;50.936;6.854;2023-10-19T03:38:33;11.80;9.10
3614;DHT22;1821;50.936;6.854;2023-10-19T03:39:16;11.80;10.70
3614;DHT22;1821;50.936;6.854;2023-10-19T03:39:59;11.90;9.40
3614;DHT22;1821;50.936;6.854;2023-10-19T03:40:49;11.90;11.00
3614;DHT22;1821;50.936;6.854;2023-10-19T03:41:34;12.00;9.90
3614;DHT22;1821;50.936;6.854;2023-10-19T03:42:17;11.90;10.70
3614;DHT22;1821;50.936;6.854;2023-10-19T03:42:59;12.10;14.00
3614;DHT22;1821;50.936;6.854;2023-10-19T03:43:51;12.00;12.50
3614;DHT22;1821;50.936;6.854;2023-10-19T03:44:34;12.00;11.80
3614;DHT22;1821;50.936;6.854;2023-10-19T03:45:31;11.80;11.10
3614;DHT22;1821;50.936;6.854;2023-10-19T03:46:20;12.10;13.00
3614;DHT22;1821;50.936;6.854;2023-10-19T03:47:19;11.90;12.10
3614;DHT22;1821;50.936;6.854;2023-10-19T03:48:03;12.10;13.40
3614;DHT22;1821;50.936;6.854;2023-10-19T03:48:51;11.90;13.80
3614;DHT22;1821;50.936;6.854;2023-10-19T03:49:33;12.10;13.10
3614;DHT22;1821;50.936;6.854;2023-10-19T03:50:19;12.00;13.00
3614;DHT22;1821;50.936;6.854;2023-10-19T03:51:03;12.10;12.70
3614;DHT22;1821;50.936;6.854;2023-10-19T03:51:47;12.10;13.00
3614;DHT22;1821;50.936;6.854;2023-10-19T03:52:44;11.90;13.60
3614;DHT22;1821;50.936;6.854;2023-10-19T03:53:29;12.10;12.80
3614;DHT22;1821;50.936;6.854;2023-10-19T03:54:12;11.80;11.90
3614;DHT22;1821;50.936;6.854;2023-10-19T03:55:06;12.10;12.80
3614;DHT22;1821;50.936;6.854;2023-10-19T03:56:04;12.10;14.90
3614;DHT22;1821;50.936;6.854;2023-10-19T03:56:52;12.10;14.70
3614;DHT22;1821;50.936;6.854;2023-10-19T03:57:34;12.00;13.20
3614;DHT22;1821;50.936;6.854;2023-10-19T03:58:17;12.10;13.60
3614;DHT22;1821;50.936;6.854;2023-10-19T03:59:01;12.00;13.00
3614;DHT22;1821;50.936;6.854;2023-10-19T03:59:47;12.10;13.20
3614;DHT22;1821;50.936;6.854;2023-10-19T04:00:34;12.20;12.70
3614;DHT22;1821;50.936;6.854;2023-10-19T04:01:17;12.20;12.20
3614;DHT22;1821;50.936;6.854;2023-10-19T04:02:01;12.20;12.10
3614;DHT22;1821;50.936;6.854;2023-10-19T04:02:49;12.10;12.10
3614;DHT22;1821;50.936;6.854;2023-10-19T04:03:35;12.00;12.40
3614;DHT22;1821;50.936;6.854;2023-10-19T04:04:18;12.00;11.40
3614;DHT22;1821;50.936;6.854;2023-10-19T04:05:02;12.20;12.10
3614;DHT22;1821;50.936;6.854;2023-10-19T04:05:45;12.20;12.20
3614;DHT22;1821;50.936;6.854;2023-10-19T04:06:28;12.20;11.80
3614;DHT22;1821;50.936;6.854;2023-10-19T04:07:11;11.90;13.60
3614;DHT22;1821;50.936;6.854;2023-10-19T04:08:05;12.20;10.70
3614;DHT22;1821;50.936;6.854;2023-10-19T04:08:54;12.20;13.00
3614;DHT22;1821;50.936;6.854;2023-10-19T04:09:36;12.50;13.60
3614;DHT22;1821;50.936;6.854;2023-10-19T04:10:39;12.10;12.90
3614;DHT22;1821;50.936;6.854;2023-10-19T04:11:28;12.30;12.10
3614;DHT22;1821;50.936;6.854;2023-10-19T04:12:14;12.30;10.50
3614;DHT22;1821;50.936;6.854;2023-10-19T04:12:58;12.10;11.60
3614;DHT22;1821;50.936;6.854;2023-10-19T04:13:42;12.10;11.50
3614;DHT22;1821;50.936;6.854;2023-10-19T04:14:24;11.90;14.90
3614;DHT22;1821;50.936;6.854;2023-10-19T04:15:07;12.30;11.70
3614;DHT22;1821;50.936;6.854;2023-10-19T04:15:58;12.70;10.20
3614;DHT22;1821;50.936;6.854;2023-10-19T04:16:40;12.10;12.50
3614;DHT22;1821;50.936;6.854;2023-10-19T04:17:25;12.40;13.40
3614;DHT22;1821;50.936;6.854;2023-10-19T04:18:09;12.10;14.00
3614;DHT22;1821;50.936;6.854;2023-10-19T04:18:51;12.00;14.80
3614;DHT22;1821;50.936;6.854;2023-10-19T04:19:36;12.20;14.40
3614;DHT22;1821;50.936;6.854;2023-10-19T04:20:18;12.90;18.20
3614;DHT22;1821;50.936;6.854;2023-10-19T04:21:01;12.20;16.80
3614;DHT22;1821;50.936;6.854;2023-10-19T04:21:44;12.10;16.10
3614;DHT22;1821;50.936;6.854;2023-10-19T04:22:28;12.10;16.00
3614;DHT22;1821;50.936;6.854;2023-10-19T04:23:12;12.20;16.00
3614;DHT22;1821;50.936;6.854;2023-10-19T04:23:58;12.00;15.10
3614;DHT22;1821;50.936;6.854;2023-10-19T04:24:40;12.20;16.80
3614;DHT22;1821;50.936;6.854;2023-10-19T04:25:22;12.10;16.20
3614;DHT22;1821;50.936;6.854;2023-10-19T04:26:07;12.10;16.10
3614;DHT22;1821;50.936;6.854;2023-10-19T04:26:52;12.20;15.50
3614;DHT22;1821;50.936;6.854;2023-10-19T04:27:36;12.20;15.70
3614;DHT22;1821;50.936;6.854;2023-10-19T04:28:18;12.20;17.40
3614;DHT22;1821;50.936;6.854;2023-10-19T04:29:11;12.10;18.30
3614;DHT22;1821;50.936;6.854;2023-10-19T04:29:55;11.90;18.40
3614;DHT22;1821;50.936;6.854;2023-10-19T04:30:38;11.90;21.40
3614;DHT22;1821;50.936;6.854;2023-10-19T04:32:05;12.20;20.30
3614;DHT22;1821;50.936;6.854;2023-10-19T04:32:49;12.20;22.80
3614;DHT22;1821;50.936;6.854;2023-10-19T04:33:32;12.30;23.30
3614;DHT22;1821;50.936;6.854;2023-10-19T04:34:18;12.10;24.20
3614;DHT22;1821;50.936;6.854;2023-10-19T04:35:03;12.20;23.50
3614;DHT22;1821;50.936;6.854;2023-10-19T04:35:45;12.00;26.50
3614;DHT22;1821;50.936;6.854;2023-10-19T04:36:27;12.00;24.80
3614;DHT22;1821;50.936;6.854;2023-10-19T04:37:09;12.20;25.30
3614;DHT22;1821;50.936;6.854;2023-10-19T04:37:54;12.10;25.10
3614;DHT22;1821;50.936;6.854;2023-10-19T04:38:36;12.50;25.90
3614;DHT22;1821;50.936;6.854;2023-10-19T04:39:18;12.30;25.70
3614;DHT22;1821;50.936;6.854;2023-10-19T04:40:03;12.40;25.30
3614;DHT22;1821;50.936;6.854;2023-10-19T04:40:49;12.20;25.60
3614;DHT22;1821;50.936;6.854;2023-10-19T04:41:30;12.30;25.70
3614;DHT22;1821;50.936;6.854;2023-10-19T04:42:13;12.30;25.70
3614;DHT22;1821;50.936;6.854;2023-10-19T04:42:56;12.40;26.10
3614;DHT22;1821;50.936;6.854;2023-10-19T04:43:41;12.30;24.30
3614;DHT22;1821;50.936;6.854;2023-10-19T04:44:31;12.20;24.60
3614;DHT22;1821;50.936;6.854;2023-10-19T04:45:14;12.20;23.20
3614;DHT22;1821;50.936;6.854;2023-10-19T04:45:56;12.20;24.10
3614;DHT22;1821;50.936;6.854;2023-10-19T04:46:40;12.20;24.10
3614;DHT22;1821;50.936;6.854;2023-10-19T04:47:22;12.30;24.80
3614;DHT22;1821;50.936;6.854;2023-10-19T04:48:07;12.20;24.30
3614;DHT22;1821;50.936;6.854;2023-10-19T04:48:49;12.30;25.20
3614;DHT22;1821;50.936;6.854;2023-10-19T04:49:31;12.40;25.50
3614;DHT22;1821;50.936;6.854;2023-10-19T04:50:14;12.30;25.00
3614;DHT22;1821;50.936;6.854;2023-10-19T04:50:56;12.30;24.60
3614;DHT22;1821;50.936;6.854;2023-10-19T04:51:38;12.30;24.70
3614;DHT22;1821;50.936;6.854;2023-10-19T04:52:21;12.30;23.90
3614;DHT22;1821;50.936;6.854;2023-10-19T04:53:03;12.20;24.20
3614;DHT22;1821;50.936;6.854;2023-10-19T04:53:45;12.40;25.30
3614;DHT22;1821;50.936;6.854;2023-10-19T04:54:27;12.30;25.40
3614;DHT22;1821;50.936;6.854;2023-10-19T04:55:09;12.40;26.10
3614;DHT22;1821;50.936;6.854;2023-10-19T04:55:51;12.40;26.70
3614;DHT22;1821;50.936;6.854;2023-10-19T04:56:33;12.50;27.50
3614;DHT22;1821;50.936;6.854;2023-10-19T04:57:15;12.30;27.30
3614;DHT22;1821;50.936;6.854;2023-10-19T04:57:56;12.40;27.30
3614;DHT22;1821;50.936;6.854;2023-10-19T04:58:42;12.40;26.50
3614;DHT22;1821;50.936;6.854;2023-10-19T04:59:24;12.10;26.00
3614;DHT22;1821;50.936;6.854;2023-10-19T05:00:06;12.30;27.50
3614;DHT22;1821;50.936;6.854;2023-10-19T05:00:49;12.20;26.50
3614;DHT22;1821;50.936;6.854;2023-10-19T05:01:31;12.50;25.50
3614;DHT22;1821;50.936;6.854;2023-10-19T05:02:16;12.50;25.50